Flight Track Log - Related Links

Times and Time Zones

All times are in EDT time to prevent confusion due to time zone crossing. See the UAL33 flight status page for this flight to view local times or setup timezone preferences in your user account.

Time Position Orientation Groundspeed Altitude Reporting Facility
EDT Latitude Longitude Course Direction KTS MPH feet Rate Location/Type
Sun 04:38:45 AM 35.7126 140.4129 151° Southeast 188 216 2,000  Level FlightAware ADS-B
Sun 04:39:01 AM 35.6999 140.4214 150° Southeast 189 217 2,600 2,195 Climbing FlightAware ADS-B
Sun 04:39:26 AM 35.6806 140.4355 149° Southeast 209 241 3,500 1,773 Climbing FlightAware ADS-B
Sun 04:39:45 AM 35.6632 140.4485 148° Southeast 225 259 3,900 1,500 Climbing FlightAware ADS-B
Sun 04:40:14 AM 35.6376 140.4666 149° Southeast 257 296 4,700 1,909 Climbing FlightAware ADS-B (ZPPP / KMG)
Sun 04:40:29 AM 35.6226 140.4773 149° Southeast 264 304 5,300 3,000 Climbing FlightAware ADS-B (ZPPP / KMG)
Sun 04:40:30 AM 35.6181 140.4805 149° Southeast 265 305 5,500 3,300 Climbing FlightAware ADS-B
Sun 04:40:49 AM 35.5984 140.4950 149° Southeast 263 303 6,400 2,462 Climbing FlightAware ADS-B
Sun 04:41:09 AM 35.5791 140.5094 149° Southeast 264 304 7,100 2,400 Climbing FlightAware ADS-B (ZPPP / KMG)
Sun 04:41:29 AM 35.5600 140.5318 125° Southeast 289 333 8,000 2,609 Climbing FlightAware ADS-B (ZPPP / KMG)
Sun 04:41:32 AM 35.5580 140.5357 120° Southeast 290 334 8,100 2,857 Climbing FlightAware ADS-B (ZPPP / KMG)
Sun 04:41:50 AM 35.5500 140.5698 97° East 296 341 9,000 2,919 Climbing FlightAware ADS-B
Sun 04:42:09 AM 35.5478 140.6019 94° East 301 346 9,900 1,900 Climbing FlightAware ADS-B
Sun 04:42:50 AM 35.5418 140.6720 97° East 337 388 10,900 1,400 Climbing FlightAware ADS-B
Sun 04:43:09 AM 35.5381 140.7039 120° Southeast 290 334 11,300 1,448 Climbing FlightAware ADS-B (ZPPP / KMG)
Sun 04:43:19 AM 35.5358 140.7225 98° East 364 419 11,600 2,700 Climbing FlightAware ADS-B (ZPPP / KMG)
Sun 04:43:29 AM 35.5322 140.7529 98° East 369 425 12,200 2,690 Climbing FlightAware ADS-B
Sun 04:43:48 AM 35.5290 140.7800 98° East 372 428 12,900 2,769 Climbing FlightAware ADS-B (ZPPP / KMG)
Sun 04:44:08 AM 35.5230 140.8317 98° East 375 432 14,000 2,066 Climbing FlightAware ADS-B
Sun 04:44:49 AM 35.5130 140.9205 98° East 376 433 15,000 951 Climbing FlightAware ADS-B
Sun 04:45:30 AM 35.5028 141.0066 97° East 377 434 15,300 1,592 Climbing FlightAware ADS-B
Sun 04:46:27 AM 35.4847 141.1288 95° East 393 452 17,600 2,327 Climbing FlightAware ADS-B
Sun 04:47:08 AM 35.4912 141.2191 78° East 400 460 19,100 2,241 Climbing FlightAware ADS-B
Sun 04:47:50 AM 35.5072 141.3138 78° East 408 470 20,700 2,175 Climbing FlightAware ADS-B
Sun 04:48:28 AM 35.5219 141.4008 78° East 419 482 22,000 1,882 Climbing FlightAware ADS-B
Sun 04:48:41 AM 35.5261 141.4259 98° East 374 430 22,300 1,852 Climbing FlightAware ADS-B (ZPPP / KMG)
Sun 04:49:49 AM 35.5546 141.5961 80° East 439 505 24,500 1,833 Climbing FlightAware ADS-B
Sun 04:50:29 AM 35.5706 141.6931 80° East 449 517 25,600 1,725 Climbing FlightAware ADS-B
Sun 04:51:09 AM 35.5873 141.7949 80° East 456 525 26,800 1,644 Climbing FlightAware ADS-B
Sun 04:51:42 AM 35.6009 141.8781 80° East 465 535 27,600 1,515 Climbing FlightAware ADS-B
Sun 04:52:48 AM 35.6294 142.0525 80° East 477 549 29,300 1,500 Climbing FlightAware ADS-B
Sun 04:53:22 AM 35.6446 142.1449 79° East 482 555 30,100 1,338 Climbing FlightAware ADS-B
Sun 04:55:07 AM 35.6912 142.4294 79° East 497 572 32,400 1,265 Climbing FlightAware ADS-B
Sun 04:55:49 AM 35.7098 142.5449 79° East 501 577 33,200 1,353 Climbing FlightAware ADS-B
Sun 04:56:49 AM 35.7367 142.7128 79° East 496 571 34,700 40 Climbing FlightAware ADS-B
Sun 04:59:00 AM 35.9090 143.0439 57° Northeast  Level Estimated
Sun 05:00:00 AM 35.9876 143.1961 57° Northeast  Level Estimated
Sun 05:01:00 AM 36.0660 143.3485 57° Northeast  Level Estimated
Sun 05:02:00 AM 36.1442 143.5013 58° Northeast  Level Estimated
Sun 05:03:00 AM 36.2223 143.6543 58° Northeast  Level Estimated
Sun 05:04:00 AM 36.3001 143.8077 58° Northeast  Level Estimated
Sun 05:05:00 AM 36.3778 143.9613 58° Northeast  Level Estimated
Sun 05:06:00 AM 36.4557 144.1162 58° Northeast  Level Estimated
Sun 05:07:00 AM 36.5333 144.2713 58° Northeast  Level Estimated
Sun 05:08:00 AM 36.6108 144.4267 58° Northeast  Level Estimated
Sun 05:09:00 AM 36.6881 144.5825 58° Northeast  Level Estimated
Sun 05:10:00 AM 36.7652 144.7386 58° Northeast  Level Estimated
Sun 05:11:00 AM 36.8420 144.8950 58° Northeast  Level Estimated
Sun 05:12:00 AM 36.9187 145.0517 59° Northeast  Level Estimated
Sun 05:13:00 AM 36.9951 145.2087 59° Northeast  Level Estimated
Sun 05:14:00 AM 37.0714 145.3660 59° Northeast  Level Estimated
Sun 05:15:00 AM 37.1474 145.5237 59° Northeast  Level Estimated
Sun 05:16:00 AM 37.2233 145.6816 59° Northeast  Level Estimated
Sun 05:17:00 AM 37.2989 145.8399 59° Northeast  Level Estimated
Sun 05:18:00 AM 37.3743 145.9985 59° Northeast  Level Estimated
Sun 05:19:00 AM 37.4495 146.1574 59° Northeast  Level Estimated
Sun 05:20:00 AM 37.5245 146.3167 59° Northeast  Level Estimated
Sun 05:21:00 AM 37.5993 146.4762 59° Northeast  Level Estimated
Sun 05:22:00 AM 37.6738 146.6361 59° Northeast  Level Estimated
Sun 05:23:00 AM 37.7481 146.7963 60° Northeast  Level Estimated
Sun 05:24:00 AM 37.8223 146.9568 60° Northeast  Level Estimated
Sun 05:25:00 AM 37.8962 147.1177 60° Northeast  Level Estimated
Sun 05:26:00 AM 37.9698 147.2788 60° Northeast  Level Estimated
Sun 05:27:00 AM 38.0433 147.4403 60° Northeast  Level Estimated
Sun 05:28:00 AM 38.1166 147.6021 60° Northeast  Level Estimated
Sun 05:29:00 AM 38.1896 147.7643 60° Northeast  Level Estimated
Sun 05:30:00 AM 38.2624 147.9267 60° Northeast  Level Estimated
Sun 05:31:00 AM 38.3349 148.0895 60° Northeast  Level Estimated
Sun 05:32:00 AM 38.4073 148.2526 60° Northeast  Level Estimated
Sun 05:33:00 AM 38.4794 148.4161 61° Northeast  Level Estimated
Sun 05:34:00 AM 38.5513 148.5798 61° Northeast  Level Estimated
Sun 05:35:00 AM 38.6230 148.7440 61° Northeast  Level Estimated
Sun 05:36:00 AM 38.6944 148.9084 61° Northeast  Level Estimated
Sun 05:37:00 AM 38.7656 149.0731 61° Northeast  Level Estimated
Sun 05:38:00 AM 38.8366 149.2382 61° Northeast  Level Estimated
Sun 05:39:00 AM 38.9073 149.4036 61° Northeast  Level Estimated
Sun 05:40:00 AM 38.9778 149.5694 61° Northeast  Level Estimated
Sun 05:41:00 AM 39.0481 149.7354 61° Northeast  Level Estimated
Sun 05:42:00 AM 39.1181 149.9018 61° Northeast  Level Estimated
Sun 05:43:00 AM 39.1879 150.0685 62° Northeast  Level Estimated
Sun 05:44:00 AM 39.2575 150.2356 62° Northeast  Level Estimated
Sun 05:45:00 AM 39.3267 150.4027 62° Northeast  Level Estimated
Sun 05:46:00 AM 39.3956 150.5701 62° Northeast  Level Estimated
Sun 05:47:00 AM 39.4643 150.7378 62° Northeast  Level Estimated
Sun 05:48:00 AM 39.5328 150.9059 62° Northeast  Level Estimated
Sun 05:49:00 AM 39.6010 151.0743 62° Northeast  Level Estimated
Sun 05:50:00 AM 39.6690 151.2431 62° Northeast  Level Estimated
Sun 05:51:00 AM 39.7368 151.4121 62° Northeast  Level Estimated
Sun 05:52:00 AM 39.8042 151.5815 63° Northeast  Level Estimated
Sun 05:53:00 AM 39.8715 151.7513 63° Northeast  Level Estimated
Sun 05:54:00 AM 39.9385 151.9213 63° Northeast  Level Estimated
Sun 05:55:00 AM 40.0052 152.0917 63° Northeast  Level Estimated
Sun 05:56:00 AM 40.0718 152.2625 63° Northeast  Level Estimated
Sun 05:57:00 AM 40.1380 152.4335 63° Northeast  Level Estimated
Sun 05:58:00 AM 40.2040 152.6049 63° Northeast  Level Estimated
Sun 05:59:00 AM 40.2697 152.7766 63° Northeast  Level Estimated
Sun 06:00:00 AM 40.3352 152.9487 63° Northeast  Level Estimated
Sun 06:01:00 AM 40.4005 153.1211 64° Northeast  Level Estimated
Sun 06:02:00 AM 40.4654 153.2938 64° Northeast  Level Estimated
Sun 06:03:00 AM 40.5302 153.4669 64° Northeast  Level Estimated
Sun 06:04:00 AM 40.5946 153.6403 64° Northeast  Level Estimated
Sun 06:05:00 AM 40.6588 153.8140 64° Northeast  Level Estimated
Sun 06:06:00 AM 40.7228 153.9881 64° Northeast  Level Estimated
Sun 06:07:00 AM 40.7864 154.1625 64° Northeast  Level Estimated
Sun 06:08:00 AM 40.8499 154.3372 64° Northeast  Level Estimated
Sun 06:09:00 AM 40.9130 154.5123 64° Northeast  Level Estimated
Sun 06:10:00 AM 40.9759 154.6877 65° Northeast  Level Estimated
Sun 06:11:00 AM 41.0385 154.8634 65° Northeast  Level Estimated
Sun 06:12:00 AM 41.1009 155.0395 65° Northeast  Level Estimated
Sun 06:13:00 AM 41.1629 155.2159 65° Northeast  Level Estimated
Sun 06:14:00 AM 41.2248 155.3927 65° Northeast  Level Estimated
Sun 06:15:00 AM 41.2863 155.5697 65° Northeast  Level Estimated
Sun 06:16:00 AM 41.3476 155.7471 65° Northeast  Level Estimated
Sun 06:17:00 AM 41.4086 155.9249 65° Northeast  Level Estimated
Sun 06:18:00 AM 41.4693 156.1030 65° Northeast  Level Estimated
Sun 06:19:00 AM 41.5298 156.2814 66° East  Level Estimated
Sun 06:20:00 AM 41.5899 156.4601 66° East  Level Estimated
Sun 06:21:00 AM 41.6498 156.6392 66° East  Level Estimated
Sun 06:22:00 AM 41.7094 156.8186 66° East  Level Estimated
Sun 06:23:00 AM 41.7688 156.9983 66° East  Level Estimated
Sun 06:24:00 AM 41.8278 157.1784 66° East  Level Estimated
Sun 06:25:00 AM 41.8866 157.3588 66° East  Level Estimated
Sun 06:26:00 AM 41.9451 157.5395 66° East  Level Estimated
Sun 06:27:00 AM 42.0033 157.7206 67° East  Level Estimated
Sun 06:28:00 AM 42.0612 157.9020 67° East  Level Estimated
Sun 06:29:00 AM 42.1189 158.0837 67° East  Level Estimated
Sun 06:30:00 AM 42.1762 158.2658 67° East  Level Estimated
Sun 06:31:00 AM 42.2333 158.4482 67° East  Level Estimated
Sun 06:32:00 AM 42.2901 158.6309 67° East  Level Estimated
Sun 06:33:00 AM 42.3465 158.8139 67° East  Level Estimated
Sun 06:34:00 AM 42.4027 158.9973 67° East  Level Estimated
Sun 06:35:00 AM 42.4586 159.1810 68° East  Level Estimated
Sun 06:36:00 AM 42.5142 159.3650 68° East  Level Estimated
Sun 06:37:00 AM 42.5695 159.5493 68° East  Level Estimated
Sun 06:38:00 AM 42.6246 159.7340 68° East  Level Estimated
Sun 06:39:00 AM 42.6793 159.9190 68° East  Level Estimated
Sun 06:40:00 AM 42.7337 160.1044 68° East  Level Estimated
Sun 06:41:00 AM 42.7878 160.2900 68° East  Level Estimated
Sun 06:42:00 AM 42.8416 160.4760 68° East  Level Estimated
Sun 06:43:00 AM 42.8951 160.6623 69° East  Level Estimated
Sun 06:44:00 AM 42.9484 160.8489 69° East  Level Estimated
Sun 06:45:00 AM 43.0013 161.0359 69° East  Level Estimated
Sun 06:46:00 AM 43.0539 161.2231 69° East  Level Estimated
Sun 06:47:00 AM 43.1063 161.4111 69° East  Level Estimated
Sun 06:48:00 AM 43.1584 161.5993 69° East  Level Estimated
Sun 06:49:00 AM 43.2101 161.7879 69° East  Level Estimated
Sun 06:50:00 AM 43.2616 161.9768 69° East  Level Estimated
Sun 06:51:00 AM 43.3128 162.1660 70° East  Level Estimated
Sun 06:52:00 AM 43.3636 162.3556 70° East  Level Estimated
Sun 06:53:00 AM 43.4141 162.5454 70° East  Level Estimated
Sun 06:54:00 AM 43.4644 162.7356 70° East  Level Estimated
Sun 06:55:00 AM 43.5143 162.9261 70° East  Level Estimated
Sun 06:56:00 AM 43.5638 163.1169 70° East  Level Estimated
Sun 06:57:00 AM 43.6131 163.3080 70° East  Level Estimated
Sun 06:58:00 AM 43.6620 163.4994 70° East  Level Estimated
Sun 06:59:00 AM 43.7107 163.6911 71° East  Level Estimated
Sun 07:00:00 AM 43.7590 163.8832 71° East  Level Estimated
Sun 07:01:00 AM 43.8070 164.0755 71° East  Level Estimated
Sun 07:02:00 AM 43.8546 164.2682 71° East  Level Estimated
Sun 07:03:00 AM 43.9020 164.4612 71° East  Level Estimated
Sun 07:04:00 AM 43.9490 164.6544 71° East  Level Estimated
Sun 07:05:00 AM 43.9957 164.8480 71° East  Level Estimated
Sun 07:06:00 AM 44.0420 165.0419 72° East  Level Estimated
Sun 07:07:00 AM 44.0881 165.2361 72° East  Level Estimated
Sun 07:08:00 AM 44.1338 165.4306 72° East  Level Estimated
Sun 07:09:00 AM 44.1791 165.6254 72° East  Level Estimated
Sun 07:10:00 AM 44.2242 165.8204 72° East  Level Estimated
Sun 07:11:00 AM 44.2689 166.0158 72° East  Level Estimated
Sun 07:12:00 AM 44.3132 166.2115 72° East  Level Estimated
Sun 07:13:00 AM 44.3573 166.4075 72° East  Level Estimated
Sun 07:14:00 AM 44.4010 166.6037 73° East  Level Estimated
Sun 07:15:00 AM 44.4444 166.8003 73° East  Level Estimated
Sun 07:16:00 AM 44.4874 166.9971 73° East  Level Estimated
Sun 07:17:00 AM 44.5301 167.1943 73° East  Level Estimated
Sun 07:18:00 AM 44.5724 167.3917 73° East  Level Estimated
Sun 07:19:00 AM 44.6144 167.5894 73° East  Level Estimated
Sun 07:20:00 AM 44.6561 167.7874 73° East  Level Estimated
Sun 07:21:00 AM 44.6974 167.9857 74° East  Level Estimated
Sun 07:21:20 AM 39.7833 166.7667 84° East 566 651 39,000  Level Oakland Oceanic (ODAPS)
Sun 07:35:13 AM 39.9833 169.5833 87° East 578 665 39,000  Level Oakland Oceanic (ODAPS)
Sun 07:38:22 AM 40.0167 170.2167 87° East 613 705 39,000  Level Oakland Oceanic (ODAPS)
Sun 07:49:04 AM 40.0833 172.5667 88° East 615 708 39,000  Level Oakland Oceanic (ODAPS)
Sun 08:02:56 AM 40.1000 175.6500 90° East 624 718 39,000  Level Oakland Oceanic (ODAPS)
Sun 08:16:48 AM 40.0500 178.7833 93° East 614 707 39,000  Level Oakland Oceanic (ODAPS)
Sun 08:22:20 AM 40.0000 180.0000 87° East 627 722 39,000  Level Oakland Oceanic (ODAPS)
Sun 08:30:39 AM 40.0667 -178.1333 88° East 630 725 39,000  Level Oakland Oceanic (ODAPS)
Sun 08:45:41 AM 40.1000 -174.9667 90° East 635 731 39,000  Level Oakland Oceanic (ODAPS)
Sun 08:58:23 AM 40.0667 -171.7500 92° East 644 741 39,000  Level Oakland Oceanic (ODAPS)
Sun 09:05:57 AM 40.0000 -170.0000 72° East 615 708 39,000  Level Oakland Oceanic (ODAPS)
Sun 09:12:15 AM 40.3333 -168.6333 73° East 608 700 39,000  Level Oakland Oceanic (ODAPS)
Sun 09:26:07 AM 40.9833 -165.6667 75° East 603 694 39,000  Level Oakland Oceanic (ODAPS)
Sun 09:40:00 AM 41.5667 -162.6833 77° East 602 693 39,000  Level Oakland Oceanic (ODAPS)
Sun 09:52:21 AM 42.0000 -160.0000 79° East 601 692 39,000  Level Oakland Oceanic (ODAPS)
Sun 09:53:52 AM 42.0500 -159.6667 79° East 607 699 39,000  Level Oakland Oceanic (ODAPS)
Sun 10:07:44 AM 42.4500 -156.5667 81° East 607 699 39,000  Level Oakland Oceanic (ODAPS)
Sun 10:21:37 AM 42.7667 -153.4167 84° East 609 701 39,000  Level Oakland Oceanic (ODAPS)
Sun 10:36:30 AM 43.0000 -150.0000 87° East 606 697 39,000  Level Oakland Oceanic (ODAPS)
Sun 10:49:19 AM 43.0833 -147.0167 89° East 608 700 39,000  Level Oakland Oceanic (ODAPS)
Sun 11:03:11 AM 43.1000 -143.8000 91° East 606 697 39,000  Level Oakland Oceanic (ODAPS)
Sun 11:17:04 AM 43.0333 -140.6333 94° East 597 687 39,000  Level Oakland Oceanic (ODAPS)
Sun 11:19:52 AM 43.0000 -140.0000 102° East 590 679 39,000  Level Oakland Oceanic (ODAPS)
Sun 11:30:55 AM 42.6000 -137.5833 103° East 589 678 39,000  Level Oakland Oceanic (ODAPS)
Sun 11:44:48 AM 42.0333 -134.5667 105° East 597 687 39,000  Level Oakland Oceanic (ODAPS)
Sun 11:58:40 AM 41.4000 -131.6333 107° East 592 681 39,000  Level Oakland Oceanic (ODAPS)
Sun 12:06:33 PM 41.0000 -130.0000 106° East 592 681 39,000  Level Oakland Oceanic (ODAPS)
Sun 12:12:27 PM 40.7167 -128.7500 107° East 593 682 39,000  Level Oakland Oceanic (ODAPS)
Sun 12:16:16 PM 40.5333 -127.9667 107° East 592 681 39,000 -16 Level Oakland Oceanic (ODAPS)
Sun 12:18:32 PM 40.4133 -127.4986 113° Southeast 596 686 38,900  Descending Oakland Center
Sun 12:19:00 PM 40.3949 -127.3870 108° East 593 682 39,000  Climbing FlightAware Transoceanic
Sun 12:19:33 PM 40.3678 -127.2908 106° East 595 685 38,900  Descending Oakland Center
Sun 12:20:00 PM 40.3476 -127.1934 108° East 593 682 39,000 98 Climbing FlightAware Transoceanic
Sun 12:20:34 PM 40.3197 -127.0867 107° East 595 685 39,000  Level Oakland Center
Sun 12:21:00 PM 40.3000 -127.0000 112° Southeast 593 682 39,000  Level FlightAware Transoceanic
Sun 12:21:35 PM 40.2639 -126.8836 110° East 595 685 39,000  Level Oakland Center
Sun 12:22:00 PM 40.2372 -126.8001 112° Southeast 592 681 39,000  Level FlightAware Transoceanic
Sun 12:22:37 PM 40.1753 -126.7056 123° Southeast 587 676 39,000  Level Oakland Center
Sun 12:23:00 PM 40.1741 -126.6007 113° Southeast 592 681 39,000  Level FlightAware Transoceanic
Sun 12:23:38 PM 40.0744 -126.5422 129° Southeast 583 671 39,000  Level Oakland Center
Sun 12:24:00 PM 40.1106 -126.4016 113° Southeast 592 681 39,000 -98 Level FlightAware Transoceanic
Sun 12:24:39 PM 39.9747 -126.3772 128° Southeast 583 671 38,900 -60 Descending Oakland Center
Sun 12:25:40 PM 39.8725 -126.2125 129° Southeast 583 671 38,900  Level Oakland Center
Sun 12:26:41 PM 39.7733 -126.0489 128° Southeast 583 671 38,900 49 Level Oakland Center
Sun 12:27:42 PM 39.6519 -125.8525 129° Southeast 583 671 39,000 28 Climbing Oakland Center
Sun 12:30:19 PM 39.0999 -124.9760 129° Southeast 579 666 39,000  Level FlightAware ADS-B (KSAC)
Sun 12:32:37 PM 38.8640 -124.6081 129° Southeast 578 665 39,000  Level FlightAware ADS-B (KSAC)
Sun 12:34:15 PM 38.6949 -124.3471 129° Southeast 579 666 39,000  Level FlightAware ADS-B (KSAC)
Sun 12:34:57 PM 38.6287 -124.2455 129° Southeast 580 667 39,000  Level FlightAware ADS-B (KSAC)
Sun 12:35:36 PM 38.5658 -124.1492 129° Southeast 580 667 39,000  Level FlightAware ADS-B (KSAC)
Sun 12:36:17 PM 38.4836 -124.0239 129° Southeast 580 667 39,000  Level FlightAware ADS-B (KSAC)
Sun 12:36:57 PM 38.4136 -123.9173 129° Southeast 577 664 39,000  Level FlightAware ADS-B (KSAC)
Sun 12:37:36 PM 38.3530 -123.8259 130° Southeast 576 663 39,000  Level FlightAware ADS-B (KSAC)
Sun 12:37:54 PM 38.6231 -124.2386 129° Southeast 580 667 39,000  Level Oakland Center
Sun 12:38:57 PM 38.2085 -123.6085 130° Southeast 576 663 39,000  Level FlightAware ADS-B (KSAC)
Sun 12:39:36 PM 38.1401 -123.5060 130° Southeast 574 661 39,000  Level FlightAware ADS-B (KSAC)
Sun 12:40:17 PM 38.0679 -123.3985 130° Southeast 573 659 39,000  Level FlightAware ADS-B (KSAC)
Sun 12:40:58 PM 37.9979 -123.2943 130° Southeast 572 658 39,000  Level FlightAware ADS-B (KSAC)
Sun 12:41:38 PM 37.9588 -123.2363 130° Southeast 572 658 39,000  Level FlightAware ADS-B (KSAC)
Sun 12:42:16 PM 37.8663 -123.0995 130° Southeast 572 658 39,000  Level FlightAware ADS-B (KSAC)
Sun 12:42:57 PM 37.7929 -122.9915 130° Southeast 573 659 39,000  Level FlightAware ADS-B (KSAC)
Sun 12:43:00 PM 37.7785 -123.0191 129° Southeast  Level FlightAware Approximate
Sun 12:48:04 PM 37.5585 -122.6490 131° Southeast 573 659 39,000  Level FlightAware ADS-B
Sun 12:48:44 PM 37.4885 -122.5470 131° Southeast 573 659 39,000  Level FlightAware ADS-B
Sun 12:49:09 PM 37.4520 -122.4940 131° Southeast 573 659 39,000  Level FlightAware ADS-B
Sun 12:49:19 PM 37.4270 -122.4580 131° Southeast 573 659 39,000  Level FlightAware ADS-B
Sun 12:49:41 PM 37.4086 -122.4312 131° Southeast 571 657 39,000  Level FlightAware ADS-B (KMIC)
Sun 12:50:03 PM 37.3522 -122.3500 131° Southeast 571 657 39,000  Level FlightAware ADS-B
Sun 12:50:13 PM 37.3473 -122.3426 131° Southeast 571 657 39,000  Level FlightAware ADS-B (KMIC)
Sun 12:50:34 PM 37.2984 -122.2720 131° Southeast 571 657 39,000  Level FlightAware ADS-B
Sun 12:50:44 PM 37.2908 -122.2613 131° Southeast 571 657 39,000 -194 Level FlightAware ADS-B
Sun 12:51:05 PM 37.2445 -122.1950 131° Southeast 572 658 38,900 -353 Descending FlightAware ADS-B
Sun 12:51:18 PM 37.2226 -122.1634 131° Southeast 572 658 38,800 -909 Descending FlightAware ADS-B
Sun 12:51:38 PM 37.1871 -122.1130 131° Southeast 571 657 38,400 -1,200 Descending FlightAware ADS-B
Sun 12:51:53 PM 37.1725 -122.0918 131° Southeast 571 657 38,100 -1,200 Descending FlightAware ADS-B (KMIC)
Sun 12:52:08 PM 37.1337 -122.0360 131° Southeast 570 656 37,800 -1,105 Descending FlightAware ADS-B
Sun 12:52:31 PM 37.1021 -121.9911 131° Southeast 568 654 37,400 -968 Descending FlightAware ADS-B (KMIC)
Sun 12:52:39 PM 37.0814 -121.9610 131° Southeast 568 654 37,300 -1,333 Descending FlightAware ADS-B
Sun 12:53:16 PM 37.0168 -121.8690 131° Southeast 567 652 36,400 -1,765 Descending FlightAware ADS-B
Sun 12:53:47 PM 36.9629 -121.7930 131° Southeast 580 667 35,300 -1,377 Descending FlightAware ADS-B
Sun 12:54:17 PM 36.9091 -121.7170 131° Southeast 576 663 35,000 -237 Descending FlightAware ADS-B
Sun 12:55:03 PM 36.8310 -121.6065 132° Southeast 575 662 35,000  Level FlightAware ADS-B
Sun 12:55:39 PM 36.7640 -121.5120 132° Southeast 575 662 35,000  Level FlightAware ADS-B
Sun 12:56:20 PM 36.6928 -121.4120 132° Southeast 575 662 35,000  Level FlightAware ADS-B
Sun 12:57:11 PM 36.6018 -121.2850 132° Southeast 573 659 35,000  Level FlightAware ADS-B
Sun 12:58:18 PM 36.4894 -121.1361 132° Southeast 572 658 35,000  Level Oakland Center
Sun 12:59:19 PM 36.3842 -120.9875 131° Southeast 572 658 35,000  Level Oakland Center
Sun 01:05:00 PM 35.7702 -120.1445 132° Southeast 578 665 35,000  Level FlightAware ADS-B
Sun 01:05:53 PM 35.6714 -120.0137 135° Southeast 577 664 35,000  Level FlightAware ADS-B
Sun 01:06:31 PM 35.6286 -119.9664 144° Southeast 572 658 35,000 -532 Level FlightAware ADS-B
Sun 01:07:12 PM 35.5265 -119.8746 145° Southeast 573 659 34,300 -1,735 Descending FlightAware ADS-B
Sun 01:07:54 PM 35.4161 -119.7795 145° Southeast 572 658 32,600 -2,336 Descending FlightAware ADS-B
Sun 01:09:05 PM 35.2628 -119.6475 145° Southeast 559 643 29,900 -2,098 Descending FlightAware ADS-B
Sun 01:10:17 PM 35.1156 -119.5215 145° Southeast 534 615 27,600 -1,526 Descending FlightAware ADS-B
Sun 01:10:59 PM 35.0301 -119.4486 145° Southeast 516 594 27,000 -480 Descending FlightAware ADS-B
Sun 01:11:32 PM 34.9668 -119.3946 144° Southeast 481 554 27,000 -179 Level FlightAware ADS-B (EHVB)
Sun 01:12:06 PM 34.9136 -119.3495 145° Southeast 456 525 26,800 -960 Descending FlightAware ADS-B
Sun 01:12:47 PM 34.8373 -119.2851 145° Southeast 450 518 25,800 -2,850 Descending FlightAware ADS-B
Sun 01:13:26 PM 34.7805 -119.2372 146° Southeast 483 556 23,000 -3,722 Descending FlightAware ADS-B
Sun 01:14:06 PM 34.6952 -119.1653 145° Southeast 476 548 20,900 -3,318 Descending FlightAware ADS-B
Sun 01:14:51 PM 34.6127 -119.0954 144° Southeast 450 518 18,300 -4,875 Descending FlightAware ADS-B (EHVB)
Sun 01:15:26 PM 34.5523 -119.0448 146° Southeast 465 535 14,400 -4,974 Descending FlightAware ADS-B
Sun 01:16:07 PM 34.4827 -118.9868 145° Southeast 433 498 12,000 -1,823 Descending FlightAware ADS-B
Sun 01:16:45 PM 34.4250 -118.9379 145° Southeast 390 449 12,000 -120 Level FlightAware ADS-B
Sun 01:16:57 PM 34.4057 -118.9218 145° Southeast 572 658 11,900 -130 Descending FlightAware ADS-B
Sun 01:17:31 PM 34.3514 -118.8826 154° Southeast 385 443 11,900  Level FlightAware ADS-B (EHVB)
Sun 01:18:31 PM 34.2513 -118.8425 162° South 378 435 11,900  Level FlightAware ADS-B (EHVB)
Sun 01:19:07 PM 34.1954 -118.8219 163° South 376 433 11,900 -532 Level FlightAware ADS-B
Sun 01:19:50 PM 34.1221 -118.7951 163° South 361 415 11,200 -844 Descending FlightAware ADS-B
Sun 01:20:11 PM 34.0877 -118.7824 162° South 346 398 11,000 -732 Descending FlightAware ADS-B (EHVB)
Sun 01:20:31 PM 34.0600 -118.7644 139° Southeast 338 389 10,700 -800 Descending FlightAware ADS-B (EHVB)
Sun 01:20:41 PM 34.0506 -118.7529 128° Southeast 334 384 10,600 -600 Descending FlightAware ADS-B
Sun 01:20:51 PM 34.0410 -118.7349 116° Southeast 328 377 10,500 -947 Descending FlightAware ADS-B (EHVB)
Sun 01:21:00 PM 34.0362 -118.7204 100° East 322 371 10,300 -973 Descending FlightAware ADS-B (EHVB)
Sun 01:21:28 PM 34.0313 -118.6790 97° East 321 369 9,900 -533 Descending FlightAware ADS-B
Sun 01:21:45 PM 34.0281 -118.6463 97° East 321 369 9,900 -545 Level FlightAware ADS-B
Sun 01:22:01 PM 34.0253 -118.6162 97° East 317 365 9,600 -833 Descending FlightAware ADS-B
Sun 01:22:21 PM 34.0218 -118.5795 96° East 309 356 9,400 -878 Descending FlightAware ADS-B
Sun 01:22:42 PM 34.0185 -118.5451 97° East 306 352 9,000 -1,050 Descending FlightAware ADS-B
Sun 01:23:01 PM 34.0163 -118.5211 97° East 302 348 8,700 -960 Descending FlightAware ADS-B
Sun 01:23:32 PM 34.0115 -118.4610 90° East 288 331 8,200 -1,200 Descending FlightAware ADS-B
Sun 01:23:51 PM 34.0125 -118.4421 83° East 267 307 7,700 -1,440 Descending FlightAware ADS-B
Sun 01:23:57 PM 34.0145 -118.4222 82° East 263 303 7,600 -1,200 Descending FlightAware ADS-B
Sun 01:24:11 PM 34.0167 -118.4013 83° East 251 289 7,300 -1,655 Descending FlightAware ADS-B
Sun 01:24:26 PM 34.0183 -118.3817 84° East 237 273 6,800 -2,000 Descending FlightAware ADS-B
Sun 01:24:32 PM 34.0188 -118.3759 84° East 235 270 6,600 -2,400 Descending FlightAware ADS-B
Sun 01:24:41 PM 34.0201 -118.3624 83° East 234 269 6,200 -3,000 Descending FlightAware ADS-B
Sun 01:24:52 PM 34.0215 -118.3483 83° East 238 274 5,600 -2,600 Descending FlightAware ADS-B
Sun 01:25:11 PM 34.0241 -118.3237 83° East 243 280 4,900 -2,100 Descending FlightAware ADS-B
Sun 01:25:12 PM 34.0243 -118.3218 84° East 244 281 4,900 -1,500 Level FlightAware ADS-B
Sun 01:25:23 PM 34.0257 -118.3064 83° East 243 280 4,600 -1,143 Descending FlightAware ADS-B
Sun 01:25:33 PM 34.0268 -118.2941 84° East 241 277 4,500 -1,588 Descending FlightAware ADS-B
Sun 01:26:31 PM 34.0361 -118.2179 79° East 228 262 2,800 -1,538 Descending FlightAware ADS-B
Sun 01:26:51 PM 34.0394 -118.1940 90° East 214 246 2,500 -789 Descending FlightAware ADS-B
Sun 01:27:09 PM 34.0386 -118.1874 144° Southeast 203 234 2,300 -514 Descending FlightAware ADS-B
Sun 01:27:26 PM 34.0221 -118.1670 169° South 197 227 2,200 -324 Descending FlightAware ADS-B
Sun 01:27:46 PM 34.0052 -118.1640 176° South 182 209 2,100 -103 Descending FlightAware ADS-B
Sun 01:28:24 PM 33.9776 -118.1826 239° Southwest 178 205 2,100  Level FlightAware ADS-B
Sun 01:28:58 PM 33.9709 -118.2147 264° West 179 206 2,100  Level FlightAware ADS-B
Sun 01:29:37 PM 33.9670 -118.2550 263° West 179 206 2,100  Level FlightAware ADS-B
Sun 01:29:57 PM 33.9650 -118.2749 263° West 183 211 2,100 -439 Level FlightAware ADS-B
Sun 01:30:18 PM 33.9629 -118.2957 264° West 179 206 1,800 -1,000 Descending FlightAware ADS-B
Sun 01:30:39 PM 33.9608 -118.3162 263° West 173 199 1,400 -885 Descending FlightAware ADS-B
Sun 01:31:19 PM 33.9572 -118.3528 264° West 154 177 900 -789 Descending FlightAware ADS-B
Sun 01:31:55 PM 33.9539 -118.3835 263° West 151 174 400 -833 Descending FlightAware ADS-B

Login

Don't have an account? Register now (free) for customized features, flight alerts, and more!